createdAt,value
2018-04-13T00:01:41.462Z,3.70
2018-04-13T00:04:09.056Z,6.10
2018-04-13T00:06:36.650Z,17.63
2018-04-13T00:09:04.286Z,28.37
2018-04-13T00:11:31.883Z,6.97
2018-04-13T00:13:59.658Z,7.23
2018-04-13T00:16:27.286Z,6.93
2018-04-13T00:18:54.882Z,6.63
2018-04-13T00:21:22.499Z,14.83
2018-04-13T00:23:50.094Z,11.17
2018-04-13T00:26:17.722Z,13.23
2018-04-13T00:28:45.305Z,7.30
2018-04-13T00:31:12.924Z,10.77
2018-04-13T00:33:40.536Z,6.27
2018-04-13T00:36:08.127Z,6.40
2018-04-13T00:38:35.751Z,8.07
2018-04-13T00:41:03.341Z,5.40
2018-04-13T00:43:31.102Z,7.53
2018-04-13T00:45:58.699Z,8.80
2018-04-13T00:48:26.294Z,4.33
2018-04-13T00:50:53.902Z,5.90
2018-04-13T00:53:29.367Z,7.83
2018-04-13T00:55:56.978Z,9.23
2018-04-13T00:58:24.574Z,6.30
2018-04-13T01:00:52.183Z,4.00
2018-04-13T01:03:19.810Z,8.97
2018-04-13T01:05:47.449Z,12.10
2018-04-13T01:08:15.248Z,4.10
2018-04-13T01:10:42.834Z,5.53
2018-04-13T01:13:10.424Z,8.53
2018-04-13T01:15:38.043Z,5.53
2018-04-13T01:18:05.689Z,2.80
2018-04-13T01:20:33.594Z,6.67
2018-04-13T01:23:01.187Z,9.47
2018-04-13T01:25:28.783Z,7.80
2018-04-13T01:27:56.394Z,8.17
2018-04-13T01:30:23.991Z,8.33
2018-04-13T01:32:51.607Z,5.30
2018-04-13T01:35:19.224Z,12.73
2018-04-13T01:37:46.856Z,5.00
2018-04-13T01:40:14.447Z,3.73
2018-04-13T01:42:42.070Z,2.30
2018-04-13T01:45:09.663Z,9.70
2018-04-13T01:47:37.509Z,6.83
2018-04-13T01:50:05.207Z,4.33
2018-04-13T01:52:32.800Z,12.40
2018-04-13T01:55:00.410Z,4.47
2018-04-13T01:57:27.998Z,11.13
2018-04-13T01:59:55.609Z,7.77
2018-04-13T02:02:23.215Z,3.57
2018-04-13T02:04:50.823Z,7.40
2018-04-13T02:07:18.416Z,6.17
2018-04-13T02:09:46.154Z,14.70
2018-04-13T02:12:13.739Z,6.53
2018-04-13T02:14:41.336Z,9.73
2018-04-13T02:17:08.972Z,10.33
2018-04-13T02:19:36.558Z,7.10
2018-04-13T02:22:04.172Z,10.67
2018-04-13T02:24:31.770Z,5.00
2018-04-13T02:26:59.548Z,5.87
2018-04-13T02:29:27.144Z,4.17
2018-04-13T02:31:54.739Z,10.80
2018-04-13T02:34:22.444Z,8.93
2018-04-13T02:36:49.979Z,2.47
2018-04-13T02:39:17.583Z,4.47
2018-04-13T02:41:45.717Z,11.03
2018-04-13T02:44:13.379Z,3.43
2018-04-13T02:46:40.976Z,10.43
2018-04-13T02:49:08.580Z,3.20
2018-04-13T02:51:36.218Z,7.67
2018-04-13T02:54:03.819Z,5.30
2018-04-13T02:56:31.436Z,4.50
2018-04-13T02:58:59.166Z,12.83
2018-04-13T03:01:27.061Z,4.13
2018-04-13T03:03:54.658Z,4.37
2018-04-13T03:06:22.246Z,5.13
2018-04-13T03:08:49.871Z,6.80
2018-04-13T03:11:17.473Z,6.03
2018-04-13T03:13:45.099Z,22.30
2018-04-13T03:16:12.692Z,7.10
2018-04-13T03:18:40.666Z,3.17
2018-04-13T03:21:08.258Z,3.10
2018-04-13T03:23:35.861Z,3.33
2018-04-13T03:26:03.481Z,2.17
2018-04-13T03:28:31.074Z,1.43
2018-04-13T03:30:58.686Z,2.73
2018-04-13T03:33:26.271Z,1.40
2018-04-13T03:35:54.018Z,4.03
2018-04-13T03:38:21.612Z,4.17
2018-04-13T03:40:49.199Z,4.10
2018-04-13T03:43:16.837Z,3.03
2018-04-13T03:45:44.430Z,3.97
2018-04-13T03:48:12.045Z,6.40
2018-04-13T03:50:39.635Z,16.17
2018-04-13T03:53:07.271Z,3.70
2018-04-13T03:55:34.878Z,4.63
2018-04-13T03:58:02.465Z,2.70
2018-04-13T04:00:30.082Z,7.10
2018-04-13T04:02:57.671Z,4.67
2018-04-13T04:05:25.379Z,3.50
2018-04-13T04:07:52.969Z,23.13
2018-04-13T04:10:20.620Z,5.53
2018-04-13T04:12:48.210Z,3.77
2018-04-13T04:15:15.797Z,2.20
2018-04-13T04:17:43.416Z,3.03
2018-04-13T04:20:22.810Z,2.80
2018-04-13T04:23:02.152Z,2.60
2018-04-13T04:28:36.841Z,4.50
2018-04-13T04:31:04.430Z,2.30
2018-04-13T04:33:32.048Z,1.20
2018-04-13T04:35:59.636Z,3.40
2018-04-13T04:38:28.065Z,9.87
2018-04-13T04:40:55.650Z,2.93
2018-04-13T04:43:23.242Z,2.30
2018-04-13T04:45:50.877Z,4.00
2018-04-13T04:48:18.467Z,2.40
2018-04-13T04:50:46.088Z,4.97
2018-04-13T04:53:13.704Z,2.80
2018-04-13T04:55:41.336Z,2.93
2018-04-13T04:58:08.926Z,4.70
2018-04-13T05:00:36.539Z,4.97
2018-04-13T05:03:04.159Z,3.63
2018-04-13T05:05:31.743Z,2.97
2018-04-13T05:07:59.369Z,6.53
2018-04-13T05:10:27.401Z,6.77
2018-04-13T05:12:55.032Z,5.40
2018-04-13T05:15:22.632Z,3.07
2018-04-13T05:17:50.219Z,8.90
2018-04-13T05:20:17.863Z,5.20
2018-04-13T05:22:45.450Z,6.13
2018-04-13T05:25:13.068Z,6.03
2018-04-13T05:27:40.672Z,8.33
2018-04-13T05:30:08.771Z,8.20
2018-04-13T05:32:36.359Z,7.37
2018-04-13T05:35:03.947Z,9.93
2018-04-13T05:37:31.570Z,8.43
2018-04-13T05:39:59.159Z,3.30
2018-04-13T05:42:26.779Z,4.77
2018-04-13T05:44:54.450Z,5.37
2018-04-13T05:47:22.085Z,7.80
2018-04-13T05:49:49.679Z,4.20
2018-04-13T05:52:17.284Z,11.60
2018-04-13T05:54:45.043Z,12.83
2018-04-13T05:57:12.643Z,14.73
2018-04-13T05:59:40.263Z,9.10
2018-04-13T06:02:07.981Z,17.37
2018-04-13T06:04:35.908Z,7.43
2018-04-13T06:07:03.505Z,22.20
2018-04-13T06:09:31.090Z,22.23
2018-04-13T06:11:58.705Z,12.57
2018-04-13T06:14:26.299Z,9.30
2018-04-13T06:16:53.948Z,9.03
2018-04-13T06:19:21.537Z,17.17
2018-04-13T06:21:49.186Z,11.53
2018-04-13T06:24:16.791Z,8.73
2018-04-13T06:26:44.397Z,7.60
2018-04-13T06:29:12.028Z,18.43
2018-04-13T06:31:39.630Z,18.40
2018-04-13T06:34:07.258Z,16.33
2018-04-13T06:36:34.876Z,14.03
2018-04-13T06:39:02.523Z,13.27
2018-04-13T06:41:30.117Z,23.27
2018-04-13T06:43:57.731Z,24.80
2018-04-13T06:46:25.343Z,18.43
2018-04-13T06:48:52.961Z,13.23
2018-04-13T06:51:20.577Z,8.53
2018-04-13T06:53:48.170Z,13.30
2018-04-13T06:56:15.993Z,8.30
2018-04-13T06:58:43.652Z,34.73
2018-04-13T07:01:11.300Z,26.43
2018-04-13T07:03:38.910Z,8.40
2018-04-13T07:06:06.531Z,6.40
2018-04-13T07:08:34.144Z,9.67
2018-04-13T07:11:01.735Z,12.37
2018-04-13T07:13:29.365Z,19.97
2018-04-13T07:15:56.963Z,10.33
2018-04-13T07:18:24.553Z,15.77
2018-04-13T07:20:52.170Z,17.30
2018-04-13T07:23:19.756Z,11.70
2018-04-13T07:25:47.370Z,10.70
2018-04-13T07:28:14.971Z,10.53
2018-04-13T07:30:42.877Z,9.43
2018-04-13T07:33:10.474Z,15.83
2018-04-13T07:35:38.071Z,14.53
2018-04-13T07:38:05.791Z,9.37
2018-04-13T07:40:33.386Z,8.47
2018-04-13T07:43:00.999Z,21.13
2018-04-13T07:45:28.842Z,21.27
2018-04-13T07:47:56.853Z,6.87
2018-04-13T07:50:24.305Z,15.23
2018-04-13T07:52:51.910Z,15.63
2018-04-13T07:55:19.527Z,14.30
2018-04-13T07:57:47.122Z,10.50
2018-04-13T08:00:14.731Z,8.13
2018-04-13T08:02:42.315Z,9.20
2018-04-13T08:05:10.940Z,10.07
2018-04-13T08:07:38.534Z,13.60
2018-04-13T08:10:06.141Z,13.77
2018-04-13T08:12:33.750Z,11.90
2018-04-13T08:15:01.362Z,9.37
2018-04-13T08:17:29.374Z,10.03
2018-04-13T08:19:57.321Z,9.60
2018-04-13T08:22:25.146Z,12.30
2018-04-13T08:24:52.759Z,19.30
2018-04-13T08:27:20.360Z,10.87
2018-04-13T08:29:48.190Z,17.37
2018-04-13T08:32:15.751Z,10.00
2018-04-13T08:34:43.357Z,10.70
2018-04-13T08:37:10.966Z,11.70
2018-04-13T08:39:38.560Z,7.90
2018-04-13T08:42:06.386Z,18.87
2018-04-13T08:44:33.986Z,14.60
2018-04-13T08:47:01.928Z,22.00
2018-04-13T08:49:29.765Z,24.97
2018-04-13T08:51:57.378Z,14.50
2018-04-13T08:54:24.990Z,11.60
2018-04-13T08:56:52.959Z,23.83
2018-04-13T08:59:20.770Z,14.10
2018-04-13T09:01:48.483Z,21.60
2018-04-13T09:04:16.632Z,9.33
2018-04-13T09:06:44.223Z,11.87
2018-04-13T09:09:11.805Z,7.37
2018-04-13T09:11:39.543Z,14.93
2018-04-13T09:14:07.164Z,15.10
2018-04-13T09:16:35.078Z,14.83
2018-04-13T09:19:02.835Z,19.00
2018-04-13T09:21:30.466Z,10.53
2018-04-13T09:23:58.339Z,11.27
2018-04-13T09:26:27.955Z,28.07
2018-04-13T09:28:55.570Z,14.80
2018-04-13T09:31:23.184Z,17.27
2018-04-13T09:33:50.842Z,18.17
2018-04-13T09:36:18.446Z,13.77
2018-04-13T09:38:46.508Z,10.33
2018-04-13T09:41:14.126Z,12.87
2018-04-13T09:43:41.730Z,12.90
2018-04-13T09:46:09.733Z,10.70
2018-04-13T09:48:37.660Z,10.17
2018-04-13T09:51:05.628Z,11.33
2018-04-13T09:53:33.227Z,18.90
2018-04-13T09:56:00.855Z,13.87
2018-04-13T09:58:28.870Z,18.60
2018-04-13T10:01:00.445Z,10.73
2018-04-13T10:03:28.235Z,11.33
2018-04-13T10:05:55.872Z,16.40
2018-04-13T10:08:23.508Z,19.20
2018-04-13T10:10:51.098Z,10.27
2018-04-13T10:13:18.721Z,27.53
2018-04-13T10:15:46.466Z,25.47
2018-04-13T10:18:14.526Z,14.30
2018-04-13T10:20:42.239Z,18.93
2018-04-13T10:23:09.829Z,6.50
2018-04-13T10:25:37.452Z,17.03
2018-04-13T10:28:05.034Z,9.50
2018-04-13T10:30:32.655Z,8.43
2018-04-13T10:33:00.260Z,6.83
2018-04-13T10:35:28.030Z,11.27
2018-04-13T10:37:55.641Z,10.70
2018-04-13T10:40:23.222Z,19.50
2018-04-13T10:42:50.956Z,37.07
2018-04-13T10:45:18.657Z,16.13
2018-04-13T10:47:46.282Z,11.63
2018-04-13T10:50:13.892Z,27.70
2018-04-13T10:52:41.553Z,10.43
2018-04-13T10:55:09.157Z,27.40
2018-04-13T10:57:36.755Z,20.80
2018-04-13T11:00:04.386Z,17.67
2018-04-13T11:02:31.997Z,12.50
2018-04-13T11:04:59.627Z,21.40
2018-04-13T11:07:27.218Z,17.27
2018-04-13T11:09:54.998Z,23.20
2018-04-13T11:12:22.594Z,19.57
2018-04-13T11:14:50.193Z,17.30
2018-04-13T11:17:17.814Z,22.63
2018-04-13T11:19:45.415Z,27.87
2018-04-13T11:22:13.058Z,22.80
2018-04-13T11:24:40.698Z,20.63
2018-04-13T11:27:08.638Z,31.90
2018-04-13T11:29:36.234Z,18.90
2018-04-13T11:32:03.833Z,28.80
2018-04-13T11:34:31.454Z,16.70
2018-04-13T11:36:59.051Z,20.33
2018-04-13T11:39:26.836Z,16.53
2018-04-13T11:41:54.442Z,34.17
2018-04-13T11:44:22.482Z,17.90
2018-04-13T11:46:53.755Z,18.10
2018-04-13T11:49:24.950Z,18.80
2018-04-13T11:51:55.391Z,29.80
2018-04-13T11:54:26.062Z,24.87
2018-04-13T11:56:55.402Z,29.20
2018-04-13T11:59:26.055Z,13.20
2018-04-13T12:02:05.035Z,28.17
2018-04-13T12:04:41.236Z,19.23
2018-04-13T12:07:17.433Z,18.73
2018-04-13T12:09:58.643Z,13.70
2018-04-13T12:12:34.648Z,16.80
2018-04-13T12:15:06.065Z,18.30
2018-04-13T12:17:42.814Z,10.00
2018-04-13T12:20:11.488Z,16.57
2018-04-13T12:22:39.073Z,16.37
2018-04-13T12:25:06.673Z,9.73
2018-04-13T12:27:35.087Z,9.03
2018-04-13T12:30:02.865Z,6.93
2018-04-13T12:32:30.830Z,8.20
2018-04-13T12:34:58.865Z,11.93
2018-04-13T12:37:26.679Z,6.80
2018-04-13T12:39:54.280Z,11.20
2018-04-13T12:42:27.841Z,13.00
2018-04-13T12:44:59.385Z,6.70
2018-04-13T12:47:33.118Z,13.10
2018-04-13T12:50:09.244Z,15.10
2018-04-13T12:52:43.662Z,20.47
2018-04-13T12:55:21.755Z,16.70
2018-04-13T12:57:58.966Z,12.70
2018-04-13T13:00:35.335Z,16.20
2018-04-13T13:03:03.832Z,27.53
2018-04-13T13:05:31.744Z,24.70
2018-04-13T13:07:59.393Z,26.83
2018-04-13T13:10:27.003Z,40.57
2018-04-13T13:12:54.688Z,29.40
2018-04-13T13:15:23.518Z,32.33
2018-04-13T13:17:51.195Z,26.40
2018-04-13T13:20:18.846Z,26.37
2018-04-13T13:22:46.551Z,24.60
2018-04-13T13:25:14.147Z,25.57
2018-04-13T13:27:41.743Z,15.50
2018-04-13T13:30:09.738Z,16.60
2018-04-13T13:32:37.517Z,12.97
2018-04-13T13:35:05.378Z,5.97
2018-04-13T13:37:32.994Z,9.17
2018-04-13T13:40:00.638Z,10.20
2018-04-13T13:42:28.256Z,9.80
2018-04-13T13:44:55.855Z,10.03
2018-04-13T13:47:23.497Z,10.87
2018-04-13T13:49:51.093Z,11.03
2018-04-13T13:52:19.008Z,14.60
2018-04-13T13:54:46.645Z,14.50
2018-04-13T13:57:14.212Z,8.27
2018-04-13T13:59:42.208Z,12.77
2018-04-13T14:02:10.083Z,13.00
2018-04-13T14:04:37.913Z,9.87
2018-04-13T14:07:05.506Z,9.13
2018-04-13T14:09:33.140Z,15.27
2018-04-13T14:12:00.775Z,8.43
2018-04-13T14:14:28.384Z,12.50
2018-04-13T14:16:56.012Z,16.40
2018-04-13T14:19:23.707Z,11.77
2018-04-13T14:21:51.666Z,10.83
2018-04-13T14:24:19.260Z,5.67
2018-04-13T14:26:46.994Z,7.70
2018-04-13T14:29:14.707Z,7.10
2018-04-13T14:31:42.796Z,5.20
2018-04-13T14:34:10.720Z,5.60
2018-04-13T14:36:38.312Z,4.10
2018-04-13T14:39:06.322Z,4.43
2018-04-13T14:41:33.915Z,4.60
2018-04-13T14:44:01.518Z,3.67
2018-04-13T14:46:29.219Z,3.70
2018-04-13T14:48:56.775Z,2.90
2018-04-13T14:51:24.381Z,4.10
2018-04-13T14:53:52.017Z,3.13
2018-04-13T14:56:19.652Z,7.50
2018-04-13T14:58:47.254Z,6.00
2018-04-13T15:01:15.106Z,10.80
2018-04-13T15:03:42.983Z,2.80
2018-04-13T15:06:10.571Z,2.40
2018-04-13T15:08:38.192Z,7.23
2018-04-13T15:11:06.511Z,4.80
2018-04-13T15:13:34.325Z,3.43
2018-04-13T15:16:01.936Z,4.17
2018-04-13T15:18:29.529Z,2.83
2018-04-13T15:20:57.147Z,6.47
2018-04-13T15:23:24.733Z,3.43
2018-04-13T15:25:52.347Z,6.97
2018-04-13T15:28:19.942Z,6.47
2018-04-13T15:30:47.879Z,5.47
2018-04-13T15:33:15.800Z,3.40
2018-04-13T15:35:43.384Z,6.30
2018-04-13T15:38:11.061Z,7.00
2018-04-13T15:40:38.659Z,2.47
2018-04-13T15:43:06.285Z,1.00
2018-04-13T15:45:33.865Z,5.93
2018-04-13T15:48:01.497Z,2.53
2018-04-13T15:50:29.135Z,1.70
2018-04-13T15:52:56.729Z,1.37
2018-04-13T15:55:24.709Z,1.53
2018-04-13T15:57:52.551Z,2.00
2018-04-13T16:00:20.546Z,1.83
2018-04-13T16:02:48.415Z,1.30
2018-04-13T16:05:16.288Z,4.70
2018-04-13T16:07:43.890Z,2.57
2018-04-13T16:10:11.494Z,3.80
2018-04-13T16:12:39.095Z,1.83
2018-04-13T16:15:07.031Z,3.53
2018-04-13T16:17:34.631Z,1.33
2018-04-13T16:20:04.151Z,1.27
2018-04-13T16:22:31.782Z,1.07
2018-04-13T16:24:59.378Z,1.70
2018-04-13T16:27:26.998Z,1.20
2018-04-13T16:29:54.588Z,2.60
2018-04-13T16:32:22.603Z,1.33
2018-04-13T16:34:50.199Z,1.33
2018-04-13T16:37:17.786Z,1.57
2018-04-13T16:39:45.416Z,1.40
2018-04-13T16:42:13.007Z,2.73
2018-04-13T16:44:40.619Z,1.83
2018-04-13T16:47:08.210Z,1.73
2018-04-13T16:49:36.266Z,2.67
2018-04-13T16:52:03.897Z,2.10
2018-04-13T16:54:31.490Z,1.37
2018-04-13T16:56:59.119Z,3.73
2018-04-13T16:59:26.712Z,2.13
2018-04-13T17:01:54.331Z,1.67
2018-04-13T17:04:22.340Z,1.50
2018-04-13T17:06:50.178Z,2.77
2018-04-13T17:09:17.782Z,3.13
2018-04-13T17:11:45.368Z,2.27
2018-04-13T17:14:13.018Z,3.33
2018-04-13T17:16:40.613Z,3.50
2018-04-13T17:19:08.232Z,2.83
2018-04-13T17:21:35.817Z,2.93
2018-04-13T17:24:03.602Z,2.97
2018-04-13T17:26:31.404Z,3.57
2018-04-13T17:28:58.992Z,3.63
2018-04-13T17:31:26.640Z,2.53
2018-04-13T17:33:54.310Z,2.30
2018-04-13T17:36:21.950Z,2.33
2018-04-13T17:38:49.539Z,4.20
2018-04-13T17:41:17.447Z,6.63
2018-04-13T17:43:45.036Z,2.70
2018-04-13T17:46:12.635Z,3.57
2018-04-13T17:48:40.378Z,3.50
2018-04-13T17:51:07.978Z,2.53
2018-04-13T17:53:35.626Z,2.30
2018-04-13T17:56:03.221Z,5.90
2018-04-13T17:58:30.988Z,3.50
2018-04-13T18:00:58.581Z,2.97
2018-04-13T18:03:26.178Z,4.07
2018-04-13T18:05:53.798Z,2.40
2018-04-13T18:08:21.386Z,2.40
2018-04-13T18:10:49.035Z,3.70
2018-04-13T18:13:16.625Z,7.47
2018-04-13T18:15:44.213Z,6.23
2018-04-13T18:18:11.830Z,9.23
2018-04-13T18:20:39.435Z,3.30
2018-04-13T18:23:07.058Z,7.40
2018-04-13T18:25:34.646Z,3.67
2018-04-13T18:28:02.585Z,3.57
2018-04-13T18:30:30.180Z,9.00
2018-04-13T18:32:57.769Z,6.30
2018-04-13T18:35:25.382Z,5.07
2018-04-13T18:37:52.999Z,6.23
2018-04-13T18:40:20.622Z,3.93
2018-04-13T18:42:48.226Z,2.97
2018-04-13T18:45:15.901Z,3.00
2018-04-13T18:47:43.487Z,2.60
2018-04-13T18:50:11.091Z,5.10
2018-04-13T18:52:38.712Z,6.60
2018-04-13T18:55:06.307Z,4.63
2018-04-13T18:57:35.313Z,4.90
2018-04-13T19:00:03.485Z,3.63
2018-04-13T19:02:31.330Z,6.33
2018-04-13T19:04:58.938Z,10.33
2018-04-13T19:07:26.582Z,4.03
2018-04-13T19:09:54.204Z,4.70
2018-04-13T19:12:21.803Z,4.83
2018-04-13T19:14:49.451Z,9.77
2018-04-13T19:17:17.043Z,3.53
2018-04-13T19:19:44.682Z,8.67
2018-04-13T19:22:12.269Z,7.87
2018-04-13T19:24:39.864Z,6.57
2018-04-13T19:27:07.479Z,8.10
2018-04-13T19:29:35.070Z,9.80
2018-04-13T19:32:02.736Z,7.30
2018-04-13T19:34:30.335Z,10.70
2018-04-13T19:36:57.991Z,7.50
2018-04-13T19:39:25.607Z,6.83
2018-04-13T19:41:53.201Z,7.27
2018-04-13T19:44:20.840Z,7.40
2018-04-13T19:46:48.434Z,11.80
2018-04-13T19:49:16.026Z,10.30
2018-04-13T19:51:43.646Z,4.67
2018-04-13T19:54:11.238Z,5.60
2018-04-13T19:56:38.843Z,4.47
2018-04-13T19:59:06.451Z,4.50
2018-04-13T20:01:34.792Z,10.63
2018-04-13T20:04:02.389Z,3.40
2018-04-13T20:06:29.983Z,4.47
2018-04-13T20:08:57.609Z,4.80
2018-04-13T20:11:25.194Z,5.30
2018-04-13T20:13:52.799Z,8.03
2018-04-13T20:16:22.132Z,5.50
2018-04-13T20:18:50.000Z,11.33
2018-04-13T20:21:17.595Z,17.93
2018-04-13T20:23:45.195Z,10.70
2018-04-13T20:26:12.813Z,4.87
2018-04-13T20:28:40.415Z,16.10
2018-04-13T20:31:08.081Z,5.97
2018-04-13T20:33:36.491Z,9.70
2018-04-13T20:36:04.459Z,7.27
2018-04-13T20:38:32.101Z,14.47
2018-04-13T20:40:59.683Z,5.90
2018-04-13T20:43:27.308Z,15.27
2018-04-13T20:45:54.912Z,8.70
2018-04-13T20:48:22.534Z,11.67
2018-04-13T20:50:50.119Z,8.97
2018-04-13T20:53:17.745Z,9.00
2018-04-13T20:55:45.342Z,7.10
2018-04-13T20:58:13.211Z,5.00
2018-04-13T21:00:40.805Z,9.07
2018-04-13T21:03:08.403Z,5.70
2018-04-13T21:05:36.031Z,13.07
2018-04-13T21:08:03.698Z,15.23
2018-04-13T21:10:31.333Z,18.90
2018-04-13T21:12:58.928Z,11.90
2018-04-13T21:15:26.547Z,9.40
2018-04-13T21:17:54.180Z,13.63
2018-04-13T21:20:22.085Z,11.20
2018-04-13T21:22:49.690Z,26.30
2018-04-13T21:25:17.282Z,6.47
2018-04-13T21:27:44.935Z,16.13
2018-04-13T21:30:12.523Z,4.43
2018-04-13T21:32:40.140Z,6.13
2018-04-13T21:35:08.103Z,4.67
2018-04-13T21:37:36.123Z,4.70
2018-04-13T21:40:03.735Z,10.53
2018-04-13T21:42:31.333Z,6.43
2018-04-13T21:44:58.941Z,10.60
2018-04-13T21:47:26.545Z,11.57
2018-04-13T21:49:54.170Z,10.20
2018-04-13T21:52:21.770Z,10.60
2018-04-13T21:54:49.418Z,11.30
2018-04-13T21:57:17.012Z,7.87
2018-04-13T21:59:44.606Z,7.37
2018-04-13T22:02:12.227Z,12.10
2018-04-13T22:04:39.842Z,4.13
2018-04-13T22:07:07.472Z,4.50
2018-04-13T22:09:35.068Z,3.97
2018-04-13T22:12:02.693Z,6.40
2018-04-13T22:14:42.008Z,5.90
2018-04-13T22:17:09.667Z,6.73
2018-04-13T22:19:37.278Z,15.30
2018-04-13T22:22:04.871Z,16.07
2018-04-13T22:24:32.503Z,26.67
2018-04-13T22:27:00.095Z,16.23
2018-04-13T22:29:27.719Z,9.93
2018-04-13T22:31:55.309Z,5.47
2018-04-13T22:34:23.034Z,6.17
2018-04-13T22:36:50.634Z,4.57
2018-04-13T22:39:18.225Z,5.70
2018-04-13T22:41:45.846Z,5.53
2018-04-13T22:44:13.439Z,6.93
2018-04-13T22:46:41.056Z,8.37
2018-04-13T22:49:08.648Z,6.80
2018-04-13T22:51:36.286Z,5.60
2018-04-13T22:54:03.892Z,10.63
2018-04-13T22:56:31.484Z,5.60
2018-04-13T22:58:59.098Z,9.00
2018-04-13T23:01:26.689Z,4.97
2018-04-13T23:03:54.304Z,5.57
2018-04-13T23:06:21.918Z,27.23
2018-04-13T23:08:49.869Z,60.53
2018-04-13T23:11:17.472Z,49.73
2018-04-13T23:13:45.066Z,26.43
2018-04-13T23:16:12.698Z,28.30
2018-04-13T23:18:40.302Z,9.23
2018-04-13T23:21:07.915Z,9.87
2018-04-13T23:23:35.507Z,6.90
2018-04-13T23:26:03.130Z,8.33
2018-04-13T23:28:30.736Z,11.93
2018-04-13T23:30:58.318Z,6.77
2018-04-13T23:33:25.932Z,5.30
2018-04-13T23:35:53.524Z,4.70
2018-04-13T23:38:21.143Z,7.17
2018-04-13T23:40:48.731Z,7.50
2018-04-13T23:43:16.327Z,9.30
2018-04-13T23:45:43.946Z,7.93
2018-04-13T23:48:11.538Z,5.03
2018-04-13T23:50:39.161Z,6.63
2018-04-13T23:53:06.778Z,23.07
2018-04-13T23:55:34.428Z,31.97
2018-04-13T23:58:02.104Z,33.00
